sensor_id;sensor_type;location;lat;lon;timestamp;pressure;altitude;pressure_sealevel;temperature;humidity
64841;BME280;51307;52.162;7.560;2024-01-06T00:00:15;99687.66;;;5.55;88.46
64841;BME280;51307;52.162;7.560;2024-01-06T00:02:41;99686.41;;;5.67;87.24
64841;BME280;51307;52.162;7.560;2024-01-06T00:05:07;99694.47;;;5.57;87.86
64841;BME280;51307;52.162;7.560;2024-01-06T00:07:32;99697.03;;;5.67;87.64
64841;BME280;51307;52.162;7.560;2024-01-06T00:09:58;99693.91;;;5.72;87.48
64841;BME280;51307;52.162;7.560;2024-01-06T00:12:23;99698.88;;;5.93;86.77
64841;BME280;51307;52.162;7.560;2024-01-06T00:14:49;99706.75;;;5.85;86.49
64841;BME280;51307;52.162;7.560;2024-01-06T00:17:16;99709.16;;;5.96;86.13
64841;BME280;51307;52.162;7.560;2024-01-06T00:19:42;99713.69;;;5.78;87.60
64841;BME280;51307;52.162;7.560;2024-01-06T00:22:08;99715.00;;;5.73;86.76
64841;BME280;51307;52.162;7.560;2024-01-06T00:24:33;99715.78;;;5.92;87.11
64841;BME280;51307;52.162;7.560;2024-01-06T00:26:59;99708.31;;;5.96;86.88
64841;BME280;51307;52.162;7.560;2024-01-06T00:29:25;99712.66;;;5.70;87.96
64841;BME280;51307;52.162;7.560;2024-01-06T00:31:50;99715.09;;;5.90;87.08
64841;BME280;51307;52.162;7.560;2024-01-06T00:34:16;99713.97;;;5.66;88.49
64841;BME280;51307;52.162;7.560;2024-01-06T00:36:41;99723.06;;;5.90;87.66
64841;BME280;51307;52.162;7.560;2024-01-06T00:39:06;99722.13;;;5.73;87.45
64841;BME280;51307;52.162;7.560;2024-01-06T00:41:32;99725.41;;;5.67;87.38
64841;BME280;51307;52.162;7.560;2024-01-06T00:43:57;99729.00;;;5.39;88.79
64841;BME280;51307;52.162;7.560;2024-01-06T00:46:23;99731.34;;;5.43;88.89
64841;BME280;51307;52.162;7.560;2024-01-06T00:48:48;99737.53;;;5.69;87.53
64841;BME280;51307;52.162;7.560;2024-01-06T00:51:14;99742.50;;;5.46;88.54
64841;BME280;51307;52.162;7.560;2024-01-06T00:53:39;99744.78;;;5.67;87.72
64841;BME280;51307;52.162;7.560;2024-01-06T00:56:05;99749.19;;;5.77;88.09
64841;BME280;51307;52.162;7.560;2024-01-06T00:58:30;99749.00;;;5.34;89.14
64841;BME280;51307;52.162;7.560;2024-01-06T01:00:56;99754.47;;;5.77;88.55
64841;BME280;51307;52.162;7.560;2024-01-06T01:03:21;99763.88;;;5.45;90.09
64841;BME280;51307;52.162;7.560;2024-01-06T01:05:47;99766.53;;;5.45;90.21
64841;BME280;51307;52.162;7.560;2024-01-06T01:08:12;99758.84;;;5.23;91.08
64841;BME280;51307;52.162;7.560;2024-01-06T01:10:38;99758.56;;;5.09;92.41
64841;BME280;51307;52.162;7.560;2024-01-06T01:13:03;99765.97;;;5.59;90.62
64841;BME280;51307;52.162;7.560;2024-01-06T01:15:29;99772.78;;;5.08;93.42
64841;BME280;51307;52.162;7.560;2024-01-06T01:17:54;99776.69;;;4.85;93.17
64841;BME280;51307;52.162;7.560;2024-01-06T01:20:20;99782.72;;;5.42;90.30
64841;BME280;51307;52.162;7.560;2024-01-06T01:22:45;99786.59;;;5.11;91.38
64841;BME280;51307;52.162;7.560;2024-01-06T01:25:11;99783.31;;;5.17;91.24
64841;BME280;51307;52.162;7.560;2024-01-06T01:27:38;99783.22;;;5.09;91.39
64841;BME280;51307;52.162;7.560;2024-01-06T01:30:04;99784.44;;;5.15;89.73
64841;BME280;51307;52.162;7.560;2024-01-06T01:32:30;99788.09;;;5.50;88.15
64841;BME280;51307;52.162;7.560;2024-01-06T01:34:56;99793.94;;;5.17;89.18
64841;BME280;51307;52.162;7.560;2024-01-06T01:37:21;99795.66;;;5.09;90.05
64841;BME280;51307;52.162;7.560;2024-01-06T01:39:47;99796.34;;;5.11;90.76
64841;BME280;51307;52.162;7.560;2024-01-06T01:42:13;99794.72;;;5.00;89.92
64841;BME280;51307;52.162;7.560;2024-01-06T01:44:38;99802.03;;;4.98;89.84
64841;BME280;51307;52.162;7.560;2024-01-06T01:47:04;99812.06;;;4.94;88.52
64841;BME280;51307;52.162;7.560;2024-01-06T01:49:30;99812.47;;;4.99;89.17
64841;BME280;51307;52.162;7.560;2024-01-06T01:51:58;99806.63;;;4.96;88.59
64841;BME280;51307;52.162;7.560;2024-01-06T01:54:25;99814.72;;;4.94;88.35
64841;BME280;51307;52.162;7.560;2024-01-06T01:56:50;99818.84;;;5.06;87.79
64841;BME280;51307;52.162;7.560;2024-01-06T01:59:18;99819.69;;;5.07;86.91
64841;BME280;51307;52.162;7.560;2024-01-06T02:01:45;99825.16;;;4.68;89.09
64841;BME280;51307;52.162;7.560;2024-01-06T02:04:11;99827.44;;;4.91;87.86
64841;BME280;51307;52.162;7.560;2024-01-06T02:06:37;99834.75;;;4.79;87.85
64841;BME280;51307;52.162;7.560;2024-01-06T02:09:02;99825.78;;;4.89;87.03
64841;BME280;51307;52.162;7.560;2024-01-06T02:11:28;99827.94;;;4.76;86.59
64841;BME280;51307;52.162;7.560;2024-01-06T02:13:53;99824.84;;;5.09;86.27
64841;BME280;51307;52.162;7.560;2024-01-06T02:16:19;99838.34;;;4.87;86.36
64841;BME280;51307;52.162;7.560;2024-01-06T02:18:44;99838.38;;;4.78;85.41
64841;BME280;51307;52.162;7.560;2024-01-06T02:21:10;99835.94;;;5.22;85.09
64841;BME280;51307;52.162;7.560;2024-01-06T02:23:36;99835.34;;;5.00;85.45
64841;BME280;51307;52.162;7.560;2024-01-06T02:26:03;99838.34;;;4.87;85.53
64841;BME280;51307;52.162;7.560;2024-01-06T02:28:28;99836.88;;;5.03;84.41
64841;BME280;51307;52.162;7.560;2024-01-06T02:30:54;99848.38;;;4.84;85.90
64841;BME280;51307;52.162;7.560;2024-01-06T02:33:19;99845.25;;;4.98;85.84
64841;BME280;51307;52.162;7.560;2024-01-06T02:35:45;99846.84;;;4.91;84.93
64841;BME280;51307;52.162;7.560;2024-01-06T02:38:11;99847.41;;;5.13;84.49
64841;BME280;51307;52.162;7.560;2024-01-06T02:40:37;99864.19;;;4.76;85.88
64841;BME280;51307;52.162;7.560;2024-01-06T02:43:02;99863.00;;;4.50;86.57
64841;BME280;51307;52.162;7.560;2024-01-06T02:45:28;99875.84;;;4.45;87.75
64841;BME280;51307;52.162;7.560;2024-01-06T02:47:53;99873.19;;;4.45;87.37
64841;BME280;51307;52.162;7.560;2024-01-06T02:50:19;99881.00;;;4.57;87.69
64841;BME280;51307;52.162;7.560;2024-01-06T02:52:44;99878.91;;;4.88;86.70
64841;BME280;51307;52.162;7.560;2024-01-06T02:55:13;99887.25;;;4.65;86.93
64841;BME280;51307;52.162;7.560;2024-01-06T02:57:38;99885.78;;;4.81;86.60
64841;BME280;51307;52.162;7.560;2024-01-06T03:00:05;99898.63;;;4.85;86.46
64841;BME280;51307;52.162;7.560;2024-01-06T03:02:30;99900.25;;;4.49;87.94
64841;BME280;51307;52.162;7.560;2024-01-06T03:04:56;99907.16;;;4.79;87.44
64841;BME280;51307;52.162;7.560;2024-01-06T03:07:21;99914.03;;;4.43;87.05
64841;BME280;51307;52.162;7.560;2024-01-06T03:09:47;99912.38;;;4.61;87.02
64841;BME280;51307;52.162;7.560;2024-01-06T03:12:12;99912.38;;;4.61;87.30
64841;BME280;51307;52.162;7.560;2024-01-06T03:14:38;99916.97;;;4.59;86.39
64841;BME280;51307;52.162;7.560;2024-01-06T03:17:03;99917.38;;;4.35;87.11
64841;BME280;51307;52.162;7.560;2024-01-06T03:19:30;99918.53;;;4.13;87.29
64841;BME280;51307;52.162;7.560;2024-01-06T03:21:56;99912.69;;;3.99;88.29
64841;BME280;51307;52.162;7.560;2024-01-06T03:24:23;99909.88;;;4.30;86.69
64841;BME280;51307;52.162;7.560;2024-01-06T03:26:49;99910.84;;;4.29;86.51
64841;BME280;51307;52.162;7.560;2024-01-06T03:29:14;99920.84;;;4.35;86.97
64841;BME280;51307;52.162;7.560;2024-01-06T03:31:43;99928.53;;;4.38;85.35
64841;BME280;51307;52.162;7.560;2024-01-06T03:34:09;99927.44;;;4.12;87.24
64841;BME280;51307;52.162;7.560;2024-01-06T03:36:39;99934.94;;;4.26;85.43
64841;BME280;51307;52.162;7.560;2024-01-06T03:39:06;99941.78;;;4.09;86.18
64841;BME280;51307;52.162;7.560;2024-01-06T03:41:31;99944.16;;;4.02;85.57
64841;BME280;51307;52.162;7.560;2024-01-06T03:43:57;99944.16;;;4.32;85.30
64841;BME280;51307;52.162;7.560;2024-01-06T03:46:23;99943.59;;;3.99;85.80
64841;BME280;51307;52.162;7.560;2024-01-06T03:48:49;99953.06;;;4.01;85.30
64841;BME280;51307;52.162;7.560;2024-01-06T03:51:14;99958.84;;;3.56;86.48
64841;BME280;51307;52.162;7.560;2024-01-06T03:53:40;99967.28;;;4.00;86.32
64841;BME280;51307;52.162;7.560;2024-01-06T03:56:06;99962.84;;;4.30;84.70
64841;BME280;51307;52.162;7.560;2024-01-06T03:58:32;99960.16;;;3.91;85.58
64841;BME280;51307;52.162;7.560;2024-01-06T04:00:57;99969.25;;;3.88;86.43
64841;BME280;51307;52.162;7.560;2024-01-06T04:03:23;99969.03;;;3.70;86.56
64841;BME280;51307;52.162;7.560;2024-01-06T04:05:49;99973.81;;;3.77;86.83
64841;BME280;51307;52.162;7.560;2024-01-06T04:08:14;99982.47;;;4.18;84.97
64841;BME280;51307;52.162;7.560;2024-01-06T04:10:40;99978.38;;;3.75;85.64
64841;BME280;51307;52.162;7.560;2024-01-06T04:13:07;99977.88;;;4.00;85.21
64841;BME280;51307;52.162;7.560;2024-01-06T04:15:33;99988.34;;;3.51;85.91
64841;BME280;51307;52.162;7.560;2024-01-06T04:18:02;99980.94;;;3.86;85.15
64841;BME280;51307;52.162;7.560;2024-01-06T04:20:28;99986.22;;;3.86;84.73
64841;BME280;51307;52.162;7.560;2024-01-06T04:22:54;99985.34;;;3.76;85.66
64841;BME280;51307;52.162;7.560;2024-01-06T04:25:19;100005.94;;;3.72;84.95
64841;BME280;51307;52.162;7.560;2024-01-06T04:27:45;99991.38;;;3.87;85.02
64841;BME280;51307;52.162;7.560;2024-01-06T04:30:12;100000.13;;;3.88;84.73
64841;BME280;51307;52.162;7.560;2024-01-06T04:32:38;100005.09;;;3.62;85.82
64841;BME280;51307;52.162;7.560;2024-01-06T04:35:04;100010.94;;;3.65;85.10
64841;BME280;51307;52.162;7.560;2024-01-06T04:37:30;100011.09;;;3.64;85.07
64841;BME280;51307;52.162;7.560;2024-01-06T04:39:55;100020.41;;;3.58;85.34
64841;BME280;51307;52.162;7.560;2024-01-06T04:42:21;100024.59;;;3.61;85.31
64841;BME280;51307;52.162;7.560;2024-01-06T04:44:48;100014.03;;;3.70;85.56
64841;BME280;51307;52.162;7.560;2024-01-06T04:47:13;100021.59;;;3.44;84.88
64841;BME280;51307;52.162;7.560;2024-01-06T04:49:38;100019.28;;;3.51;85.92
64841;BME280;51307;52.162;7.560;2024-01-06T04:52:04;100020.53;;;3.57;85.41
64841;BME280;51307;52.162;7.560;2024-01-06T04:54:30;100024.88;;;3.67;85.47
64841;BME280;51307;52.162;7.560;2024-01-06T04:56:55;100028.66;;;3.75;85.22
64841;BME280;51307;52.162;7.560;2024-01-06T04:59:21;100021.97;;;3.70;85.08
64841;BME280;51307;52.162;7.560;2024-01-06T05:01:47;100024.44;;;3.62;85.38
64841;BME280;51307;52.162;7.560;2024-01-06T05:04:12;100025.72;;;3.68;86.36
64841;BME280;51307;52.162;7.560;2024-01-06T05:06:38;100028.44;;;3.47;85.94
64841;BME280;51307;52.162;7.560;2024-01-06T05:09:03;100041.84;;;3.55;86.23
64841;BME280;51307;52.162;7.560;2024-01-06T05:11:29;100038.41;;;3.74;85.18
64841;BME280;51307;52.162;7.560;2024-01-06T05:13:54;100044.09;;;3.38;86.54
64841;BME280;51307;52.162;7.560;2024-01-06T05:16:20;100043.84;;;3.72;85.96
64841;BME280;51307;52.162;7.560;2024-01-06T05:18:45;100047.91;;;3.86;84.24
64841;BME280;51307;52.162;7.560;2024-01-06T05:21:11;100051.50;;;3.76;86.14
64841;BME280;51307;52.162;7.560;2024-01-06T05:23:36;100053.28;;;3.65;85.75
64841;BME280;51307;52.162;7.560;2024-01-06T05:26:02;100055.09;;;3.65;85.16
64841;BME280;51307;52.162;7.560;2024-01-06T05:28:27;100057.03;;;3.32;86.72
64841;BME280;51307;52.162;7.560;2024-01-06T05:30:52;100057.41;;;3.48;86.03
64841;BME280;51307;52.162;7.560;2024-01-06T05:33:18;100064.31;;;3.40;86.84
64841;BME280;51307;52.162;7.560;2024-01-06T05:35:43;100072.25;;;3.40;86.17
64841;BME280;51307;52.162;7.560;2024-01-06T05:38:09;100064.34;;;3.49;86.47
64841;BME280;51307;52.162;7.560;2024-01-06T05:40:34;100073.81;;;3.52;86.40
64841;BME280;51307;52.162;7.560;2024-01-06T05:43:00;100074.53;;;3.54;85.75
64841;BME280;51307;52.162;7.560;2024-01-06T05:45:25;100074.38;;;3.03;87.30
64841;BME280;51307;52.162;7.560;2024-01-06T05:47:51;100072.38;;;3.38;86.78
64841;BME280;51307;52.162;7.560;2024-01-06T05:50:16;100074.59;;;3.43;86.46
64841;BME280;51307;52.162;7.560;2024-01-06T05:52:42;100077.69;;;3.48;85.85
64841;BME280;51307;52.162;7.560;2024-01-06T05:55:08;100088.34;;;3.58;85.47
64841;BME280;51307;52.162;7.560;2024-01-06T05:57:34;100083.44;;;3.53;85.53
64841;BME280;51307;52.162;7.560;2024-01-06T06:00:00;100083.09;;;3.15;87.19
64841;BME280;51307;52.162;7.560;2024-01-06T06:02:26;100091.81;;;3.58;85.83
64841;BME280;51307;52.162;7.560;2024-01-06T06:04:52;100099.66;;;3.38;86.46
64841;BME280;51307;52.162;7.560;2024-01-06T06:07:18;100099.13;;;3.45;85.84
64841;BME280;51307;52.162;7.560;2024-01-06T06:09:44;100098.06;;;3.57;84.82
64841;BME280;51307;52.162;7.560;2024-01-06T06:12:13;100101.22;;;3.20;86.00
64841;BME280;51307;52.162;7.560;2024-01-06T06:14:38;100103.47;;;3.03;85.98
64841;BME280;51307;52.162;7.560;2024-01-06T06:17:04;100111.03;;;3.29;86.13
64841;BME280;51307;52.162;7.560;2024-01-06T06:19:29;100116.59;;;3.36;84.81
64841;BME280;51307;52.162;7.560;2024-01-06T06:21:55;100127.72;;;3.51;84.33
64841;BME280;51307;52.162;7.560;2024-01-06T06:24:20;100127.72;;;3.51;84.08
64841;BME280;51307;52.162;7.560;2024-01-06T06:26:46;100133.75;;;3.63;83.44
64841;BME280;51307;52.162;7.560;2024-01-06T06:29:12;100135.91;;;3.79;83.07
64841;BME280;51307;52.162;7.560;2024-01-06T06:31:37;100135.44;;;3.43;84.61
64841;BME280;51307;52.162;7.560;2024-01-06T06:34:03;100146.88;;;3.22;84.81
64841;BME280;51307;52.162;7.560;2024-01-06T06:36:28;100154.72;;;3.54;83.34
64841;BME280;51307;52.162;7.560;2024-01-06T06:38:54;100159.00;;;3.46;83.99
64841;BME280;51307;52.162;7.560;2024-01-06T06:41:20;100166.06;;;3.66;83.58
64841;BME280;51307;52.162;7.560;2024-01-06T06:43:45;100174.91;;;3.77;82.77
64841;BME280;51307;52.162;7.560;2024-01-06T06:46:11;100176.06;;;3.63;82.85
64841;BME280;51307;52.162;7.560;2024-01-06T06:48:36;100177.63;;;3.65;82.31
64841;BME280;51307;52.162;7.560;2024-01-06T06:51:02;100185.50;;;3.77;81.86
64841;BME280;51307;52.162;7.560;2024-01-06T06:53:28;100189.75;;;3.68;81.90
64841;BME280;51307;52.162;7.560;2024-01-06T06:55:53;100189.63;;;3.69;82.49
64841;BME280;51307;52.162;7.560;2024-01-06T06:58:19;100192.97;;;3.71;81.75
64841;BME280;51307;52.162;7.560;2024-01-06T07:00:44;100203.44;;;3.73;81.96
64841;BME280;51307;52.162;7.560;2024-01-06T07:03:10;100204.53;;;3.49;82.28
64841;BME280;51307;52.162;7.560;2024-01-06T07:05:35;100217.75;;;3.28;83.52
64841;BME280;51307;52.162;7.560;2024-01-06T07:08:01;100223.91;;;3.50;82.42
64841;BME280;51307;52.162;7.560;2024-01-06T07:10:27;100221.13;;;3.51;83.02
64841;BME280;51307;52.162;7.560;2024-01-06T07:12:52;100228.13;;;3.20;84.36
64841;BME280;51307;52.162;7.560;2024-01-06T07:15:18;100226.84;;;3.35;83.41
64841;BME280;51307;52.162;7.560;2024-01-06T07:17:43;100222.84;;;3.20;84.53
64841;BME280;51307;52.162;7.560;2024-01-06T07:20:09;100232.88;;;3.05;85.43
64841;BME280;51307;52.162;7.560;2024-01-06T07:22:36;100231.41;;;3.01;85.16
64841;BME280;51307;52.162;7.560;2024-01-06T07:25:01;100234.91;;;3.01;85.49
64841;BME280;51307;52.162;7.560;2024-01-06T07:27:27;100241.06;;;2.91;86.83
64841;BME280;51307;52.162;7.560;2024-01-06T07:29:52;100240.91;;;3.03;85.29
64841;BME280;51307;52.162;7.560;2024-01-06T07:32:18;100236.16;;;2.86;86.08
64841;BME280;51307;52.162;7.560;2024-01-06T07:34:43;100249.75;;;2.81;85.19
64841;BME280;51307;52.162;7.560;2024-01-06T07:37:09;100251.72;;;3.00;84.41
64841;BME280;51307;52.162;7.560;2024-01-06T07:39:34;100261.81;;;3.07;83.77
64841;BME280;51307;52.162;7.560;2024-01-06T07:42:00;100268.88;;;3.06;83.88
64841;BME280;51307;52.162;7.560;2024-01-06T07:44:25;100261.66;;;2.76;84.14
64841;BME280;51307;52.162;7.560;2024-01-06T07:46:52;100271.34;;;2.86;83.90
64841;BME280;51307;52.162;7.560;2024-01-06T07:49:17;100273.66;;;2.80;83.42
64841;BME280;51307;52.162;7.560;2024-01-06T07:51:43;100275.25;;;3.15;82.25
64841;BME280;51307;52.162;7.560;2024-01-06T07:54:08;100280.81;;;3.00;82.33
64841;BME280;51307;52.162;7.560;2024-01-06T07:56:35;100288.16;;;2.85;82.35
64841;BME280;51307;52.162;7.560;2024-01-06T07:59:03;100292.94;;;3.03;81.42
64841;BME280;51307;52.162;7.560;2024-01-06T08:01:29;100302.69;;;3.02;80.96
64841;BME280;51307;52.162;7.560;2024-01-06T08:03:55;100299.94;;;3.25;80.51
64841;BME280;51307;52.162;7.560;2024-01-06T08:06:21;100304.59;;;3.12;80.84
64841;BME280;51307;52.162;7.560;2024-01-06T08:08:46;100317.03;;;3.32;82.44
64841;BME280;51307;52.162;7.560;2024-01-06T08:11:12;100318.72;;;3.33;82.30
64841;BME280;51307;52.162;7.560;2024-01-06T08:13:37;100319.44;;;3.24;81.79
64841;BME280;51307;52.162;7.560;2024-01-06T08:16:04;100325.38;;;3.49;81.47
64841;BME280;51307;52.162;7.560;2024-01-06T08:18:30;100325.50;;;3.47;82.24
64841;BME280;51307;52.162;7.560;2024-01-06T08:20:55;100327.84;;;3.29;80.83
64841;BME280;51307;52.162;7.560;2024-01-06T08:23:21;100332.56;;;3.14;80.92
64841;BME280;51307;52.162;7.560;2024-01-06T08:25:46;100336.34;;;3.33;82.36
64841;BME280;51307;52.162;7.560;2024-01-06T08:28:12;100339.22;;;3.41;81.89
64841;BME280;51307;52.162;7.560;2024-01-06T08:30:40;100344.25;;;3.12;81.08
64841;BME280;51307;52.162;7.560;2024-01-06T08:33:05;100342.25;;;3.25;81.49
64841;BME280;51307;52.162;7.560;2024-01-06T08:35:31;100350.22;;;3.14;81.23
64841;BME280;51307;52.162;7.560;2024-01-06T08:37:57;100354.34;;;3.07;81.43
64841;BME280;51307;52.162;7.560;2024-01-06T08:40:22;100355.25;;;3.28;81.16
64841;BME280;51307;52.162;7.560;2024-01-06T08:42:48;100361.97;;;3.32;80.42
64841;BME280;51307;52.162;7.560;2024-01-06T08:45:13;100363.22;;;3.06;81.47
64841;BME280;51307;52.162;7.560;2024-01-06T08:47:39;100365.34;;;3.23;79.95
64841;BME280;51307;52.162;7.560;2024-01-06T08:50:06;100375.94;;;3.23;81.52
64841;BME280;51307;52.162;7.560;2024-01-06T08:52:32;100375.13;;;3.00;82.39
64841;BME280;51307;52.162;7.560;2024-01-06T08:54:57;100376.28;;;3.18;81.25
64841;BME280;51307;52.162;7.560;2024-01-06T08:57:23;100378.13;;;2.95;82.15
64841;BME280;51307;52.162;7.560;2024-01-06T08:59:48;100390.34;;;3.08;81.51
64841;BME280;51307;52.162;7.560;2024-01-06T09:02:14;100392.41;;;2.93;83.06
64841;BME280;51307;52.162;7.560;2024-01-06T09:04:39;100388.13;;;2.92;82.34
64841;BME280;51307;52.162;7.560;2024-01-06T09:07:05;100394.00;;;2.84;82.52
64841;BME280;51307;52.162;7.560;2024-01-06T09:09:30;100403.34;;;3.11;82.21
64841;BME280;51307;52.162;7.560;2024-01-06T09:11:56;100407.44;;;2.81;82.87
64841;BME280;51307;52.162;7.560;2024-01-06T09:14:21;100412.47;;;2.95;82.24
64841;BME280;51307;52.162;7.560;2024-01-06T09:16:47;100417.66;;;3.08;81.02
64841;BME280;51307;52.162;7.560;2024-01-06T09:19:12;100421.84;;;2.88;81.54
64841;BME280;51307;52.162;7.560;2024-01-06T09:21:38;100420.91;;;3.12;81.03
64841;BME280;51307;52.162;7.560;2024-01-06T09:24:04;100418.97;;;3.14;81.12
64841;BME280;51307;52.162;7.560;2024-01-06T09:26:32;100430.75;;;2.98;82.44
64841;BME280;51307;52.162;7.560;2024-01-06T09:29:00;100429.91;;;2.98;82.19
64841;BME280;51307;52.162;7.560;2024-01-06T09:31:25;100437.94;;;2.96;82.03
64841;BME280;51307;52.162;7.560;2024-01-06T09:33:51;100436.16;;;2.85;82.84
64841;BME280;51307;52.162;7.560;2024-01-06T09:36:17;100442.88;;;3.12;82.43
64841;BME280;51307;52.162;7.560;2024-01-06T09:38:43;100446.97;;;3.05;82.36
64841;BME280;51307;52.162;7.560;2024-01-06T09:41:08;100456.78;;;2.80;83.12
64841;BME280;51307;52.162;7.560;2024-01-06T09:43:34;100462.31;;;2.88;82.89
64841;BME280;51307;52.162;7.560;2024-01-06T09:46:10;100466.03;;;2.75;83.33
64841;BME280;51307;52.162;7.560;2024-01-06T09:48:40;100469.19;;;2.91;82.15
64841;BME280;51307;52.162;7.560;2024-01-06T09:51:11;100476.53;;;2.87;83.06
64841;BME280;51307;52.162;7.560;2024-01-06T09:53:48;100472.31;;;2.85;81.77
64841;BME280;51307;52.162;7.560;2024-01-06T09:56:16;100479.63;;;2.93;80.80
64841;BME280;51307;52.162;7.560;2024-01-06T09:58:42;100482.47;;;2.67;82.18
64841;BME280;51307;52.162;7.560;2024-01-06T10:01:08;100472.63;;;2.69;82.10
64841;BME280;51307;52.162;7.560;2024-01-06T10:03:38;100482.88;;;2.85;82.48
64841;BME280;51307;52.162;7.560;2024-01-06T10:06:04;100477.34;;;2.99;81.65
64841;BME280;51307;52.162;7.560;2024-01-06T10:08:32;100481.06;;;2.97;82.09
64841;BME280;51307;52.162;7.560;2024-01-06T10:11:00;100485.91;;;3.03;82.13
64841;BME280;51307;52.162;7.560;2024-01-06T10:13:25;100489.00;;;2.85;83.17
64841;BME280;51307;52.162;7.560;2024-01-06T10:15:51;100492.03;;;3.15;82.16
64841;BME280;51307;52.162;7.560;2024-01-06T10:18:16;100500.22;;;3.12;82.04
64841;BME280;51307;52.162;7.560;2024-01-06T10:20:44;100499.34;;;3.11;82.32
64841;BME280;51307;52.162;7.560;2024-01-06T10:23:10;100502.00;;;3.11;81.69
64841;BME280;51307;52.162;7.560;2024-01-06T10:25:36;100502.34;;;2.95;83.23
64841;BME280;51307;52.162;7.560;2024-01-06T10:28:02;100506.22;;;3.02;82.66
64841;BME280;51307;52.162;7.560;2024-01-06T10:30:28;100501.97;;;2.88;83.14
64841;BME280;51307;52.162;7.560;2024-01-06T10:32:54;100503.78;;;2.99;82.28
64841;BME280;51307;52.162;7.560;2024-01-06T10:35:19;100511.00;;;2.97;82.36
64841;BME280;51307;52.162;7.560;2024-01-06T10:37:45;100520.63;;;2.98;82.84
64841;BME280;51307;52.162;7.560;2024-01-06T10:40:16;100509.56;;;3.04;82.62
64841;BME280;51307;52.162;7.560;2024-01-06T10:42:42;100515.34;;;2.98;83.61
64841;BME280;51307;52.162;7.560;2024-01-06T10:45:13;100516.78;;;3.25;81.71
64841;BME280;51307;52.162;7.560;2024-01-06T10:47:41;100517.16;;;3.09;82.41
64841;BME280;51307;52.162;7.560;2024-01-06T10:50:09;100522.59;;;2.83;83.46
64841;BME280;51307;52.162;7.560;2024-01-06T10:52:37;100522.03;;;2.91;84.08
64841;BME280;51307;52.162;7.560;2024-01-06T10:55:04;100534.09;;;3.07;83.66
64841;BME280;51307;52.162;7.560;2024-01-06T10:57:31;100530.22;;;2.99;82.77
64841;BME280;51307;52.162;7.560;2024-01-06T10:59:59;100530.25;;;3.11;82.79
64841;BME280;51307;52.162;7.560;2024-01-06T11:02:26;100524.00;;;3.23;82.42
64841;BME280;51307;52.162;7.560;2024-01-06T11:04:52;100524.97;;;3.11;81.49
64841;BME280;51307;52.162;7.560;2024-01-06T11:07:21;100530.25;;;3.11;82.41
64841;BME280;51307;52.162;7.560;2024-01-06T11:09:57;100533.09;;;2.96;82.93
64841;BME280;51307;52.162;7.560;2024-01-06T11:12:23;100527.47;;;3.12;82.48
64841;BME280;51307;52.162;7.560;2024-01-06T11:14:52;100525.03;;;2.98;84.15
64841;BME280;51307;52.162;7.560;2024-01-06T11:20:22;100535.81;;;2.83;83.92
64841;BME280;51307;52.162;7.560;2024-01-06T11:22:48;100534.66;;;2.87;84.49
64841;BME280;51307;52.162;7.560;2024-01-06T11:25:16;100527.81;;;2.96;83.70
64841;BME280;51307;52.162;7.560;2024-01-06T11:27:44;100527.72;;;3.20;82.86
64841;BME280;51307;52.162;7.560;2024-01-06T11:30:38;100536.22;;;3.01;83.35
64841;BME280;51307;52.162;7.560;2024-01-06T11:33:05;100538.38;;;2.85;82.94
64841;BME280;51307;52.162;7.560;2024-01-06T11:35:31;100533.09;;;3.08;83.55
64841;BME280;51307;52.162;7.560;2024-01-06T11:38:00;100523.72;;;3.03;84.60
64841;BME280;51307;52.162;7.560;2024-01-06T11:40:36;100527.47;;;3.24;83.80
64841;BME280;51307;52.162;7.560;2024-01-06T11:43:10;100525.53;;;2.92;83.09
64841;BME280;51307;52.162;7.560;2024-01-06T11:45:40;100528.06;;;3.38;81.38
64841;BME280;51307;52.162;7.560;2024-01-06T11:48:08;100519.88;;;2.96;83.36
64841;BME280;51307;52.162;7.560;2024-01-06T11:50:36;100530.50;;;3.19;82.91
64841;BME280;51307;52.162;7.560;2024-01-06T11:53:03;100528.44;;;3.11;82.29
64841;BME280;51307;52.162;7.560;2024-01-06T11:55:29;100537.66;;;2.94;82.51
64841;BME280;51307;52.162;7.560;2024-01-06T11:57:58;100528.06;;;2.93;82.93
64841;BME280;51307;52.162;7.560;2024-01-06T12:00:27;100522.41;;;2.98;82.95
64841;BME280;51307;52.162;7.560;2024-01-06T12:03:00;100524.44;;;2.94;83.78
64841;BME280;51307;52.162;7.560;2024-01-06T12:05:27;100528.72;;;2.73;84.69
64841;BME280;51307;52.162;7.560;2024-01-06T12:07:54;100526.94;;;2.73;84.37
64841;BME280;51307;52.162;7.560;2024-01-06T12:10:21;100535.94;;;2.70;84.92
64841;BME280;51307;52.162;7.560;2024-01-06T12:13:04;100529.81;;;2.81;84.40
64841;BME280;51307;52.162;7.560;2024-01-06T12:15:32;100542.69;;;2.50;84.69
64841;BME280;51307;52.162;7.560;2024-01-06T12:17:58;100546.31;;;2.85;84.59
64841;BME280;51307;52.162;7.560;2024-01-06T12:20:26;100542.34;;;2.55;85.71
64841;BME280;51307;52.162;7.560;2024-01-06T12:22:54;100542.09;;;2.82;84.27
64841;BME280;51307;52.162;7.560;2024-01-06T12:25:24;100539.84;;;3.00;83.61
64841;BME280;51307;52.162;7.560;2024-01-06T12:27:52;100546.56;;;2.93;83.84
64841;BME280;51307;52.162;7.560;2024-01-06T12:30:20;100546.63;;;2.80;84.49
64841;BME280;51307;52.162;7.560;2024-01-06T12:32:47;100548.13;;;2.96;84.78
64841;BME280;51307;52.162;7.560;2024-01-06T12:35:15;100553.25;;;2.86;85.04
64841;BME280;51307;52.162;7.560;2024-01-06T12:37:44;100546.88;;;2.88;85.10
64841;BME280;51307;52.162;7.560;2024-01-06T12:40:13;100542.25;;;3.26;83.30
64841;BME280;51307;52.162;7.560;2024-01-06T12:42:40;100544.53;;;3.08;83.82
64841;BME280;51307;52.162;7.560;2024-01-06T12:45:06;100544.16;;;3.01;83.16
64841;BME280;51307;52.162;7.560;2024-01-06T12:47:32;100558.53;;;2.86;83.99
64841;BME280;51307;52.162;7.560;2024-01-06T12:49:58;100556.28;;;2.93;83.57
64841;BME280;51307;52.162;7.560;2024-01-06T12:52:23;100560.88;;;2.66;85.01
64841;BME280;51307;52.162;7.560;2024-01-06T12:54:49;100571.72;;;2.39;85.00
64841;BME280;51307;52.162;7.560;2024-01-06T12:57:15;100571.47;;;2.66;85.22
64841;BME280;51307;52.162;7.560;2024-01-06T12:59:41;100561.19;;;2.86;84.46
64841;BME280;51307;52.162;7.560;2024-01-06T13:02:06;100567.84;;;3.03;84.51